Time;durP1;ratioP1;P1;durP2;ratioP2;P2;SDS_P1;SDS_P2;PMS_P1;PMS_P2;Temp;Humidity;BMP_temperature;BMP_pressure;BME280_temperature;BME280_humidity;BME280_pressure;Samples;Min_cycle;Max_cycle;Signal;HPM_P1;HPM_P2
2022/07/30 00:01:03;;;;;;;10.18;7.55;;;15.40;99.90;;;;;;5029510;28;20125;-88
2022/07/30 00:03:29;;;;;;;11.43;8.05;;;15.30;99.90;;;;;;5011650;28;20077;-88
2022/07/30 00:05:55;;;;;;;11.23;7.82;;;15.30;99.90;;;;;;5029888;28;20095;-89
2022/07/30 00:08:22;;;;;;;11.88;7.72;;;15.30;99.90;;;;;;4994492;28;20050;-88
2022/07/30 00:10:49;;;;;;;10.75;7.70;;;15.20;99.90;;;;;;5010887;28;20049;-88
2022/07/30 00:13:15;;;;;;;10.07;7.78;;;15.20;99.90;;;;;;5011579;28;20033;-88
2022/07/30 00:15:40;;;;;;;10.70;8.10;;;15.20;99.90;;;;;;5012807;28;20394;-88
2022/07/30 00:18:06;;;;;;;10.50;7.90;;;15.10;99.90;;;;;;5011964;28;20053;-88
2022/07/30 00:20:31;;;;;;;9.52;7.30;;;15.10;99.90;;;;;;5030306;28;20033;-88
2022/07/30 00:22:57;;;;;;;10.27;7.20;;;15.10;99.90;;;;;;5023726;28;20127;-88
2022/07/30 00:25:23;;;;;;;11.57;7.50;;;15.10;99.90;;;;;;5009021;28;20068;-88
2022/07/30 00:27:49;;;;;;;9.48;6.80;;;15.10;99.90;;;;;;5002711;28;20057;-88
2022/07/30 00:30:18;;;;;;;10.20;6.55;;;15.10;99.90;;;;;;5009548;28;20782;-88
2022/07/30 00:32:43;;;;;;;10.18;6.53;;;15.00;99.90;;;;;;5023480;28;20040;-89
2022/07/30 00:35:09;;;;;;;9.98;6.43;;;15.00;99.90;;;;;;4987915;28;20365;-88
2022/07/30 00:37:35;;;;;;;10.02;6.45;;;15.00;99.90;;;;;;4979410;28;20037;-88
2022/07/30 00:40:00;;;;;;;11.90;7.38;;;15.00;99.90;;;;;;5001206;28;20053;-88
2022/07/30 00:42:37;;;;;;;9.75;7.00;;;15.00;99.90;;;;;;5025225;28;20088;-87
2022/07/30 00:45:04;;;;;;;9.57;6.50;;;15.00;99.90;;;;;;4980316;28;20067;-87
2022/07/30 00:47:30;;;;;;;9.00;6.43;;;14.90;99.90;;;;;;5027612;28;20457;-88
2022/07/30 00:49:56;;;;;;;9.80;6.72;;;14.90;99.90;;;;;;4982931;28;20053;-88
2022/07/30 00:52:21;;;;;;;12.40;7.88;;;14.90;99.90;;;;;;5019884;28;20049;-88
2022/07/30 00:54:47;;;;;;;10.73;6.93;;;14.90;99.90;;;;;;5005373;28;20135;-88
2022/07/30 00:57:12;;;;;;;10.20;6.68;;;14.90;99.90;;;;;;5010165;28;20038;-87
2022/07/30 00:59:38;;;;;;;10.05;7.53;;;14.80;99.90;;;;;;5005264;28;20060;-88
2022/07/30 01:02:04;;;;;;;10.38;7.13;;;14.80;99.90;;;;;;4996592;28;20133;-88
2022/07/30 01:04:30;;;;;;;9.05;6.80;;;14.70;99.90;;;;;;5001379;28;20502;-87
2022/07/30 01:06:56;;;;;;;10.70;7.57;;;14.80;99.90;;;;;;4985566;28;20080;-88
2022/07/30 01:09:21;;;;;;;9.55;7.50;;;14.80;99.90;;;;;;5005021;28;20080;-88
2022/07/30 01:11:47;;;;;;;9.63;7.38;;;14.80;99.90;;;;;;5029440;28;20494;-88
2022/07/30 01:14:13;;;;;;;12.60;8.27;;;14.80;99.90;;;;;;5023776;28;20449;-88
2022/07/30 01:16:41;;;;;;;11.45;7.93;;;14.80;99.90;;;;;;4980807;28;20038;-88
2022/07/30 01:22:08;;;;;;;9.30;7.22;;;14.70;99.90;;;;;;5020966;28;20387;-88
2022/07/30 01:24:38;;;;;;;11.10;7.45;;;14.60;99.90;;;;;;5023996;28;20120;-88
2022/07/30 01:27:06;;;;;;;8.85;7.18;;;14.40;99.90;;;;;;5027170;28;20168;-87
2022/07/30 01:29:33;;;;;;;10.23;6.93;;;14.40;99.90;;;;;;4996582;28;20050;-88
2022/07/30 01:32:01;;;;;;;9.90;7.30;;;14.40;99.90;;;;;;5025699;28;20044;-88
2022/07/30 01:34:30;;;;;;;9.57;7.00;;;14.40;99.90;;;;;;4992475;28;20510;-87
2022/07/30 01:36:58;;;;;;;9.48;6.95;;;14.40;99.90;;;;;;5012117;28;20033;-88
2022/07/30 01:39:25;;;;;;;10.07;7.72;;;14.30;99.90;;;;;;5009808;28;20065;-88
2022/07/30 01:41:53;;;;;;;11.30;7.95;;;14.30;99.90;;;;;;4999987;28;20041;-88
2022/07/30 01:44:19;;;;;;;9.40;7.57;;;14.30;99.90;;;;;;4990218;28;20068;-88
2022/07/30 01:46:47;;;;;;;9.95;7.50;;;14.20;99.90;;;;;;5006606;28;20421;-88
2022/07/30 01:49:14;;;;;;;10.02;7.65;;;14.20;99.90;;;;;;4999391;28;20049;-88
2022/07/30 01:51:41;;;;;;;10.50;7.65;;;14.20;99.90;;;;;;4999013;28;20266;-88
2022/07/30 01:54:09;;;;;;;11.23;8.57;;;14.10;99.90;;;;;;4995539;28;20378;-88
2022/07/30 01:56:36;;;;;;;10.95;7.80;;;14.10;99.90;;;;;;5006290;28;20065;-88
2022/07/30 01:59:05;;;;;;;10.10;7.88;;;14.10;99.90;;;;;;5026030;28;21045;-88
2022/07/30 02:01:31;;;;;;;10.43;7.60;;;14.10;99.90;;;;;;5006210;28;20042;-88
2022/07/30 02:03:59;;;;;;;10.80;7.43;;;14.10;99.90;;;;;;5002905;28;20140;-88
2022/07/30 02:06:32;;;;;;;9.85;7.18;;;14.10;99.90;;;;;;4986278;28;20052;-88
2022/07/30 02:09:03;;;;;;;11.00;7.90;;;14.10;99.90;;;;;;4989081;28;20056;-87
2022/07/30 02:14:29;;;;;;;11.15;8.13;;;14.10;99.90;;;;;;5002811;28;20053;-88
2022/07/30 02:16:57;;;;;;;10.75;7.80;;;14.10;99.90;;;;;;5028081;28;20860;-88
2022/07/30 02:19:27;;;;;;;9.73;7.70;;;14.10;99.90;;;;;;4996406;28;20113;-88
2022/07/30 02:22:01;;;;;;;10.27;7.45;;;14.10;99.90;;;;;;4976451;28;20048;-88
2022/07/30 02:24:30;;;;;;;10.13;7.90;;;14.10;99.90;;;;;;5005140;28;20060;-88
2022/07/30 02:27:01;;;;;;;10.20;7.95;;;14.10;99.90;;;;;;5006774;28;20049;-87
2022/07/30 02:29:27;;;;;;;11.23;8.07;;;14.10;99.90;;;;;;5029535;28;20045;-88
2022/07/30 02:31:56;;;;;;;10.60;8.40;;;14.00;99.90;;;;;;5015606;28;20052;-88
2022/07/30 02:34:24;;;;;;;11.32;8.23;;;14.00;99.90;;;;;;4993362;28;20040;-88
2022/07/30 02:36:51;;;;;;;11.88;8.98;;;14.00;99.90;;;;;;5021045;28;20489;-88
2022/07/30 02:39:20;;;;;;;11.45;9.35;;;13.90;99.90;;;;;;5012576;28;20044;-87
2022/07/30 02:41:46;;;;;;;10.32;8.80;;;13.90;99.90;;;;;;5008190;28;20079;-88
2022/07/30 02:44:16;;;;;;;11.70;8.73;;;13.90;99.90;;;;;;5010705;28;20077;-87
2022/07/30 02:46:42;;;;;;;11.95;9.52;;;13.80;99.90;;;;;;5036882;28;20041;-90
2022/07/30 02:49:09;;;;;;;11.32;9.80;;;13.80;99.90;;;;;;5041488;28;20049;-88
2022/07/30 02:51:35;;;;;;;10.75;8.32;;;13.80;99.90;;;;;;5015878;28;20095;-87
2022/07/30 02:54:02;;;;;;;13.25;10.13;;;13.80;99.90;;;;;;5025055;28;20049;-87
2022/07/30 02:56:29;;;;;;;13.32;11.95;;;13.80;99.90;;;;;;5022270;28;20045;-88
2022/07/30 02:58:57;;;;;;;13.95;12.07;;;13.80;99.90;;;;;;5036474;28;20049;-87
2022/07/30 03:01:23;;;;;;;14.88;13.25;;;13.80;99.90;;;;;;5022898;28;20046;-87
2022/07/30 03:03:51;;;;;;;17.20;15.43;;;13.70;99.90;;;;;;5017162;28;20042;-86
2022/07/30 03:06:18;;;;;;;16.73;14.98;;;13.80;99.90;;;;;;5013863;28;20048;-87
2022/07/30 03:08:45;;;;;;;15.85;14.20;;;13.80;99.90;;;;;;5028534;28;20108;-88
2022/07/30 03:11:12;;;;;;;14.43;12.93;;;13.80;99.90;;;;;;5012842;28;20120;-87
2022/07/30 03:13:38;;;;;;;12.65;11.32;;;13.80;99.90;;;;;;5001101;28;20128;-86
2022/07/30 03:16:07;;;;;;;14.07;11.32;;;13.80;99.90;;;;;;5024949;28;20120;-87
2022/07/30 03:18:35;;;;;;;12.60;11.30;;;13.80;99.90;;;;;;5025972;28;20152;-87
2022/07/30 03:21:01;;;;;;;13.80;12.40;;;13.80;99.90;;;;;;5019783;28;20153;-87
2022/07/30 03:23:28;;;;;;;17.00;15.25;;;13.80;99.90;;;;;;5033860;28;20208;-88
2022/07/30 03:25:57;;;;;;;17.48;15.77;;;13.80;99.90;;;;;;5021063;28;20092;-87
2022/07/30 03:28:24;;;;;;;17.90;16.05;;;13.80;99.90;;;;;;5041994;28;20057;-87
2022/07/30 03:30:51;;;;;;;14.98;13.48;;;13.80;99.90;;;;;;5030017;28;20060;-87
2022/07/30 03:33:18;;;;;;;14.65;13.15;;;13.90;99.90;;;;;;5018495;28;20048;-87
2022/07/30 03:35:46;;;;;;;13.45;12.05;;;13.90;99.90;;;;;;5034005;28;20041;-87
2022/07/30 03:38:16;;;;;;;13.98;12.52;;;13.90;99.90;;;;;;5013027;28;20049;-87
2022/07/30 03:40:43;;;;;;;14.23;12.82;;;13.80;99.90;;;;;;5023585;28;20037;-88
2022/07/30 03:43:11;;;;;;;15.40;12.60;;;13.80;99.90;;;;;;5009380;28;20463;-87
2022/07/30 03:45:40;;;;;;;14.07;12.45;;;13.80;99.90;;;;;;5038022;28;20386;-88
2022/07/30 03:48:07;;;;;;;14.77;13.10;;;13.80;99.90;;;;;;5021489;28;20053;-88
2022/07/30 03:50:37;;;;;;;15.57;13.73;;;13.80;99.90;;;;;;5041540;28;20556;-86
2022/07/30 03:53:04;;;;;;;16.00;14.30;;;13.80;99.90;;;;;;5014640;28;20434;-87
2022/07/30 03:55:31;;;;;;;15.48;13.82;;;13.80;99.90;;;;;;4995808;28;20057;-87
2022/07/30 03:57:57;;;;;;;15.15;13.60;;;13.70;99.90;;;;;;5018860;28;20077;-87
2022/07/30 04:00:23;;;;;;;15.35;13.80;;;13.70;99.90;;;;;;5011051;28;20490;-87
2022/07/30 04:02:49;;;;;;;14.95;13.43;;;13.70;99.90;;;;;;5012632;28;20041;-86
2022/07/30 04:05:15;;;;;;;15.82;13.88;;;13.70;99.90;;;;;;5016907;28;20111;-86
2022/07/30 04:07:41;;;;;;;15.20;13.60;;;13.60;99.90;;;;;;5039065;28;20033;-87
2022/07/30 04:10:08;;;;;;;14.70;13.27;;;13.70;99.90;;;;;;5037125;28;20103;-86
2022/07/30 04:12:34;;;;;;;15.35;13.77;;;13.70;99.90;;;;;;5002931;28;20041;-86
2022/07/30 04:15:00;;;;;;;14.93;13.30;;;13.70;99.90;;;;;;5013897;28;20412;-87
2022/07/30 04:17:40;;;;;;;14.93;13.52;;;13.70;99.90;;;;;;5035275;28;20045;-87
2022/07/30 04:20:15;;;;;;;15.90;14.30;;;13.70;99.90;;;;;;5010442;28;20049;-87
2022/07/30 04:22:42;;;;;;;15.77;14.27;;;13.70;99.90;;;;;;5015281;28;20055;-87
2022/07/30 04:25:08;;;;;;;14.65;13.15;;;13.70;99.90;;;;;;5038353;28;20088;-87
2022/07/30 04:27:35;;;;;;;14.20;12.77;;;13.70;99.90;;;;;;5012867;28;20049;-86
2022/07/30 04:30:01;;;;;;;15.57;14.15;;;13.80;99.90;;;;;;5015796;28;20057;-86
2022/07/30 04:32:27;;;;;;;15.90;14.35;;;13.80;99.90;;;;;;5014572;28;20073;-87
2022/07/30 04:34:55;;;;;;;16.85;15.07;;;13.80;99.90;;;;;;4995030;28;20170;-86
2022/07/30 04:37:23;;;;;;;17.00;15.40;;;13.80;99.90;;;;;;5012745;28;20037;-87
2022/07/30 04:39:52;;;;;;;16.08;14.48;;;13.80;99.90;;;;;;5005431;28;20122;-88
2022/07/30 04:42:19;;;;;;;17.00;15.20;;;13.80;99.90;;;;;;4994574;28;20075;-86
2022/07/30 04:44:45;;;;;;;16.30;14.70;;;13.90;99.90;;;;;;5011571;28;20050;-86
2022/07/30 04:47:11;;;;;;;16.77;15.18;;;13.90;99.90;;;;;;5015148;28;20053;-87
2022/07/30 04:49:37;;;;;;;16.67;14.98;;;13.90;99.90;;;;;;5038767;28;20081;-87
2022/07/30 04:52:04;;;;;;;18.15;16.35;;;14.00;99.90;;;;;;5027293;28;20103;-87
2022/07/30 04:54:41;;;;;;;18.13;15.80;;;14.00;99.90;;;;;;5014930;28;20111;-86
2022/07/30 04:57:09;;;;;;;20.65;15.88;;;14.10;99.90;;;;;;5019522;28;20045;-86
2022/07/30 04:59:36;;;;;;;18.50;14.75;;;14.00;99.90;;;;;;5029302;28;20040;-85
2022/07/30 05:02:03;;;;;;;20.10;14.52;;;14.10;99.90;;;;;;5033096;28;20504;-85
2022/07/30 05:04:31;;;;;;;20.67;14.57;;;14.10;99.90;;;;;;4994278;28;20051;-86
2022/07/30 05:06:58;;;;;;;16.77;15.18;;;14.10;99.90;;;;;;4999274;28;20600;-87
2022/07/30 05:09:24;;;;;;;15.65;14.15;;;14.10;99.90;;;;;;5017746;28;20068;-86
2022/07/30 05:11:53;;;;;;;16.90;15.15;;;14.10;99.90;;;;;;5035129;28;20128;-87
2022/07/30 05:14:20;;;;;;;16.58;14.98;;;14.10;99.90;;;;;;5017184;28;20045;-86
2022/07/30 05:16:46;;;;;;;17.73;16.02;;;14.20;99.90;;;;;;5033131;28;20077;-86
2022/07/30 05:19:12;;;;;;;17.33;15.73;;;14.20;99.90;;;;;;5000314;28;20079;-87
2022/07/30 05:21:37;;;;;;;16.27;14.73;;;14.20;99.90;;;;;;5013404;28;20033;-85
2022/07/30 05:24:03;;;;;;;17.08;15.48;;;14.30;99.90;;;;;;5044806;28;20043;-86
2022/07/30 05:26:29;;;;;;;17.67;15.95;;;14.40;99.90;;;;;;5026777;28;20048;-87
2022/07/30 05:28:54;;;;;;;18.67;16.77;;;14.40;99.90;;;;;;5006706;28;20037;-87
2022/07/30 05:31:20;;;;;;;19.13;17.23;;;14.50;99.90;;;;;;5026611;28;20045;-87
2022/07/30 05:33:46;;;;;;;17.55;15.85;;;14.60;99.90;;;;;;5026996;28;20502;-85
2022/07/30 05:36:11;;;;;;;17.15;15.48;;;14.70;99.90;;;;;;5009565;28;20120;-87
2022/07/30 05:38:37;;;;;;;17.08;15.48;;;14.70;99.90;;;;;;5020435;28;20093;-87
2022/07/30 05:41:02;;;;;;;15.52;13.95;;;14.80;99.90;;;;;;5022969;28;20044;-86
2022/07/30 05:43:28;;;;;;;15.63;14.18;;;14.90;99.90;;;;;;5023582;28;20072;-86
2022/07/30 05:45:54;;;;;;;15.43;14.00;;;15.00;99.90;;;;;;5026189;28;20121;-86
2022/07/30 05:48:19;;;;;;;16.52;14.93;;;15.10;99.90;;;;;;5026005;28;21579;-87
2022/07/30 05:50:45;;;;;;;15.10;13.60;;;15.20;99.90;;;;;;5019409;28;20045;-87
2022/07/30 05:53:10;;;;;;;17.23;15.55;;;15.20;99.90;;;;;;5003429;28;20053;-87
2022/07/30 05:55:36;;;;;;;20.27;16.30;;;15.30;99.90;;;;;;5026591;28;20501;-87
2022/07/30 05:58:01;;;;;;;16.00;14.40;;;15.50;99.90;;;;;;5026709;28;20073;-92
2022/07/30 06:00:27;;;;;;;16.42;14.75;;;15.50;99.90;;;;;;4994984;28;20044;-94
2022/07/30 06:02:53;;;;;;;15.55;13.80;;;15.60;99.90;;;;;;5014339;28;20660;-91
2022/07/30 06:05:18;;;;;;;14.32;12.70;;;15.70;99.90;;;;;;5025871;28;20046;-89
2022/07/30 06:07:44;;;;;;;22.50;13.77;;;15.80;99.90;;;;;;4986258;28;20132;-89
2022/07/30 06:10:10;;;;;;;18.90;14.95;;;15.90;99.90;;;;;;5025346;28;20049;-93
2022/07/30 06:12:36;;;;;;;15.50;13.90;;;16.00;99.90;;;;;;5000892;28;20097;-90
2022/07/30 06:15:02;;;;;;;16.55;14.88;;;16.10;99.90;;;;;;4980218;28;20153;-92
2022/07/30 06:17:28;;;;;;;17.30;15.23;;;16.30;99.90;;;;;;5024419;28;20042;-88
2022/07/30 06:19:53;;;;;;;18.17;15.38;;;16.30;99.90;;;;;;4987756;28;20203;-86
2022/07/30 06:22:19;;;;;;;20.08;15.85;;;16.40;99.90;;;;;;5024604;28;20034;-86
2022/07/30 06:24:45;;;;;;;17.73;15.93;;;16.50;99.90;;;;;;5006934;28;20530;-87
2022/07/30 06:27:10;;;;;;;17.05;15.13;;;16.60;99.90;;;;;;5007818;28;20129;-86
2022/07/30 06:29:36;;;;;;;18.52;16.48;;;16.70;99.90;;;;;;5026437;28;20138;-86
2022/07/30 06:32:03;;;;;;;17.77;15.98;;;16.70;99.90;;;;;;5006473;28;20078;-88
2022/07/30 06:34:28;;;;;;;17.40;15.57;;;16.90;99.90;;;;;;5008327;28;20068;-86
2022/07/30 06:36:54;;;;;;;18.25;16.27;;;17.00;99.90;;;;;;5005260;28;20046;-86
2022/07/30 06:39:20;;;;;;;18.52;15.77;;;17.00;99.90;;;;;;5005803;28;20037;-87
2022/07/30 06:41:45;;;;;;;18.98;16.38;;;17.10;99.90;;;;;;5005773;28;20050;-86
2022/07/30 06:44:11;;;;;;;18.38;16.00;;;17.10;99.90;;;;;;5025987;28;20041;-86
2022/07/30 06:46:37;;;;;;;21.67;16.55;;;17.30;99.90;;;;;;5006879;28;20054;-87
2022/07/30 06:49:03;;;;;;;22.83;16.77;;;17.40;99.90;;;;;;5007390;28;20529;-86
2022/07/30 06:51:28;;;;;;;20.08;16.85;;;17.40;99.90;;;;;;5026244;28;20052;-86
2022/07/30 06:53:54;;;;;;;20.45;17.25;;;17.50;99.90;;;;;;5024395;28;20041;-87
2022/07/30 06:56:19;;;;;;;20.05;16.05;;;17.50;99.90;;;;;;5027940;28;20418;-86
2022/07/30 06:58:45;;;;;;;21.15;16.90;;;17.50;99.90;;;;;;5008152;28;20509;-87
2022/07/30 07:01:11;;;;;;;19.48;16.17;;;17.60;99.90;;;;;;5024906;28;20053;-87
2022/07/30 07:03:36;;;;;;;21.27;16.90;;;17.80;99.90;;;;;;5007055;28;20049;-86
2022/07/30 07:06:04;;;;;;;21.35;17.92;;;17.80;99.90;;;;;;5023444;28;20053;-86
2022/07/30 07:08:30;;;;;;;21.83;18.38;;;17.90;99.90;;;;;;5026006;28;20063;-87
2022/07/30 07:10:56;;;;;;;19.88;17.73;;;18.00;99.90;;;;;;5025014;28;20056;-87
2022/07/30 07:13:22;;;;;;;18.60;16.48;;;18.00;99.90;;;;;;5026218;28;20104;-87
2022/07/30 07:15:48;;;;;;;19.48;17.17;;;18.00;99.90;;;;;;5006512;28;20131;-87
2022/07/30 07:18:14;;;;;;;19.45;17.38;;;18.10;99.90;;;;;;5025116;28;20044;-86
2022/07/30 07:20:39;;;;;;;18.05;16.23;;;18.10;99.90;;;;;;5008395;28;20052;-86
2022/07/30 07:23:05;;;;;;;19.02;16.85;;;18.10;99.90;;;;;;5006811;28;20085;-86
2022/07/30 07:25:31;;;;;;;17.80;15.65;;;18.30;99.90;;;;;;5008279;28;20099;-86
2022/07/30 07:27:56;;;;;;;19.08;17.08;;;18.40;99.90;;;;;;4989926;28;20143;-87
2022/07/30 07:30:22;;;;;;;20.20;16.55;;;18.40;99.90;;;;;;5007500;28;20042;-87
2022/07/30 07:32:48;;;;;;;18.83;16.33;;;18.50;99.90;;;;;;5006131;28;20870;-86
2022/07/30 07:35:13;;;;;;;17.80;15.93;;;18.50;99.90;;;;;;5007496;28;20072;-86
2022/07/30 07:37:39;;;;;;;17.35;15.23;;;18.60;99.90;;;;;;5026045;28;20069;-85
2022/07/30 07:40:05;;;;;;;17.85;15.88;;;18.60;99.90;;;;;;4990572;28;20516;-87
2022/07/30 07:42:31;;;;;;;15.82;14.23;;;18.70;99.90;;;;;;4993351;28;20033;-87
2022/07/30 07:44:56;;;;;;;16.75;14.90;;;18.90;99.90;;;;;;5025420;28;20049;-87
2022/07/30 07:47:22;;;;;;;18.08;14.60;;;18.90;99.90;;;;;;5004424;28;20375;-87
2022/07/30 07:49:48;;;;;;;17.55;14.60;;;19.00;99.90;;;;;;5025278;28;20045;-86
2022/07/30 07:52:13;;;;;;;19.42;14.57;;;19.00;99.90;;;;;;4989424;28;20125;-86
2022/07/30 07:54:39;;;;;;;17.15;13.77;;;19.10;99.90;;;;;;5012011;28;20045;-86
2022/07/30 07:57:06;;;;;;;18.25;14.20;;;19.10;99.90;;;;;;5011073;28;20387;-88
2022/07/30 07:59:33;;;;;;;15.10;12.85;;;19.20;99.90;;;;;;5011968;28;20050;-87
2022/07/30 08:01:58;;;;;;;16.50;13.73;;;19.20;99.90;;;;;;5026488;28;20042;-87
2022/07/30 08:04:24;;;;;;;15.02;13.05;;;19.10;99.90;;;;;;5030136;28;20104;-87
2022/07/30 08:06:50;;;;;;;17.27;13.32;;;19.30;99.90;;;;;;5010281;28;20417;-87
2022/07/30 08:09:15;;;;;;;14.35;12.18;;;19.40;99.90;;;;;;4994963;28;20068;-87
2022/07/30 08:11:41;;;;;;;13.93;11.07;;;19.40;99.90;;;;;;5011389;28;20454;-88
2022/07/30 08:14:06;;;;;;;16.98;11.63;;;19.50;99.90;;;;;;5028324;28;20081;-87
2022/07/30 08:16:32;;;;;;;13.43;11.10;;;19.60;99.90;;;;;;5025544;28;20491;-87
2022/07/30 08:18:58;;;;;;;15.13;11.75;;;19.50;99.90;;;;;;5009867;28;20061;-87
2022/07/30 08:21:23;;;;;;;15.02;10.18;;;19.60;99.90;;;;;;5028830;28;20085;-87
2022/07/30 08:23:49;;;;;;;13.18;9.15;;;19.70;99.90;;;;;;5027868;28;20128;-86
2022/07/30 08:26:15;;;;;;;12.73;9.68;;;19.80;99.90;;;;;;5006712;28;20061;-87
2022/07/30 08:28:42;;;;;;;13.45;9.95;;;19.80;99.90;;;;;;4994209;28;20049;-88
2022/07/30 08:31:08;;;;;;;11.90;9.40;;;19.80;99.90;;;;;;5027638;28;20129;-87
2022/07/30 08:33:34;;;;;;;11.73;9.02;;;19.90;99.90;;;;;;5011130;28;20045;-87
2022/07/30 08:36:00;;;;;;;12.25;8.60;;;19.90;99.90;;;;;;5027189;28;20211;-87
2022/07/30 08:38:26;;;;;;;11.05;7.95;;;20.10;99.90;;;;;;4995145;28;20114;-88
2022/07/30 08:40:54;;;;;;;12.55;7.43;;;20.00;99.90;;;;;;5009911;28;20089;-87
2022/07/30 08:43:20;;;;;;;11.23;6.32;;;20.10;99.90;;;;;;5029171;28;20041;-87
2022/07/30 08:45:46;;;;;;;12.73;7.30;;;20.20;99.90;;;;;;5005927;28;20099;-86
2022/07/30 08:48:13;;;;;;;12.90;7.47;;;20.40;99.90;;;;;;5027751;28;20057;-87
2022/07/30 08:50:39;;;;;;;10.57;6.88;;;20.40;99.90;;;;;;5010437;28;20089;-87
2022/07/30 08:53:05;;;;;;;11.57;6.35;;;20.50;99.90;;;;;;5027656;28;20050;-87
2022/07/30 08:55:31;;;;;;;11.60;6.38;;;20.50;99.90;;;;;;5010231;28;20080;-88
2022/07/30 08:57:57;;;;;;;11.30;5.93;;;20.40;99.90;;;;;;5009936;28;20414;-87
2022/07/30 09:00:22;;;;;;;10.38;5.90;;;20.40;99.90;;;;;;5010807;28;20141;-87
2022/07/30 09:02:48;;;;;;;12.73;6.90;;;20.50;99.90;;;;;;5009241;28;20600;-88
2022/07/30 09:05:14;;;;;;;12.43;6.35;;;20.50;99.90;;;;;;5027881;28;20045;-87
2022/07/30 09:07:39;;;;;;;11.65;6.72;;;20.60;99.90;;;;;;5009831;28;20091;-87
2022/07/30 09:10:07;;;;;;;11.00;6.68;;;20.70;99.90;;;;;;5009167;28;20057;-88
2022/07/30 09:12:35;;;;;;;11.43;6.68;;;20.70;99.90;;;;;;5010339;28;20395;-88
2022/07/30 09:15:06;;;;;;;10.23;6.10;;;20.80;99.90;;;;;;5025242;28;20038;-86
2022/07/30 09:17:59;;;;;;;10.82;5.63;;;20.80;99.90;;;;;;4993442;28;20548;-88
2022/07/30 09:20:32;;;;;;;12.25;5.30;;;20.90;99.90;;;;;;5006760;28;20054;-88
2022/07/30 09:23:00;;;;;;;10.40;5.22;;;20.80;99.90;;;;;;4993272;28;20057;-89
2022/07/30 09:25:38;;;;;;;11.55;4.75;;;20.80;99.90;;;;;;5027482;28;20087;-89
2022/07/30 09:28:05;;;;;;;10.80;5.40;;;20.90;99.90;;;;;;5006908;28;20085;-87
2022/07/30 09:30:49;;;;;;;10.80;6.18;;;20.90;99.90;;;;;;5009016;28;20124;-88
2022/07/30 09:33:40;;;;;;;11.38;5.55;;;21.10;99.90;;;;;;5009350;28;20049;-88
2022/07/30 09:36:12;;;;;;;10.02;5.25;;;21.20;99.90;;;;;;5005400;28;20511;-87
2022/07/30 09:38:47;;;;;;;11.07;5.57;;;21.30;99.90;;;;;;5009547;28;20057;-88
2022/07/30 09:41:15;;;;;;;11.00;4.72;;;21.40;99.90;;;;;;5005747;28;20049;-87
2022/07/30 09:43:51;;;;;;;8.75;4.32;;;21.40;99.90;;;;;;5009716;28;20045;-88
2022/07/30 09:46:17;;;;;;;10.07;4.95;;;21.50;99.90;;;;;;5006958;28;20368;-87
2022/07/30 09:48:45;;;;;;;12.13;4.55;;;21.40;99.90;;;;;;4988689;28;20063;-88
2022/07/30 09:51:11;;;;;;;11.30;4.75;;;21.40;99.90;;;;;;5008809;28;20057;-88
2022/07/30 09:53:53;;;;;;;12.25;4.95;;;21.40;99.90;;;;;;5009229;28;20175;-87
2022/07/30 09:56:27;;;;;;;11.07;5.07;;;21.40;99.90;;;;;;5024255;28;20064;-89
2022/07/30 09:58:53;;;;;;;9.32;4.50;;;21.40;99.90;;;;;;5026493;28;20072;-88
2022/07/30 10:01:19;;;;;;;8.23;4.30;;;21.40;99.90;;;;;;5005489;28;20486;-87
2022/07/30 10:03:45;;;;;;;8.88;4.30;;;21.40;99.90;;;;;;5008254;28;20051;-88
2022/07/30 10:06:10;;;;;;;9.10;4.00;;;21.40;99.90;;;;;;5009267;28;20053;-88
2022/07/30 10:08:43;;;;;;;8.60;3.75;;;21.50;99.90;;;;;;5027781;28;20038;-89
2022/07/30 10:11:15;;;;;;;8.10;3.75;;;21.60;99.90;;;;;;5008114;28;20124;-88
2022/07/30 10:13:41;;;;;;;9.73;4.38;;;21.70;99.90;;;;;;5009615;28;20049;-88
2022/07/30 10:16:09;;;;;;;8.50;4.50;;;21.70;99.90;;;;;;4989557;28;20076;-89
2022/07/30 10:18:35;;;;;;;9.60;4.20;;;21.80;99.90;;;;;;5007837;28;20380;-88
2022/07/30 10:21:02;;;;;;;9.30;4.20;;;21.80;99.90;;;;;;5007997;28;20406;-89
2022/07/30 10:23:29;;;;;;;8.63;4.07;;;21.90;99.90;;;;;;5008771;28;20171;-88
2022/07/30 10:26:01;;;;;;;10.65;4.63;;;21.90;99.90;;;;;;5003218;28;20513;-89
2022/07/30 10:28:29;;;;;;;11.73;4.30;;;21.90;99.90;;;;;;4991401;28;20052;-89
2022/07/30 10:30:56;;;;;;;10.40;4.78;;;22.00;99.90;;;;;;4994046;28;20064;-89
2022/07/30 10:33:29;;;;;;;11.05;4.40;;;21.90;99.90;;;;;;4984389;28;20494;-89
2022/07/30 10:35:56;;;;;;;7.43;3.60;;;22.00;99.90;;;;;;4996643;28;20137;-89
2022/07/30 10:38:31;;;;;;;8.07;3.65;;;22.00;99.90;;;;;;4997770;28;20033;-89
2022/07/30 10:41:06;;;;;;;10.82;3.95;;;22.00;99.90;;;;;;5010920;28;20050;-90
2022/07/30 10:44:02;;;;;;;7.07;3.60;;;22.20;99.90;;;;;;4997756;28;20038;-89
2022/07/30 10:46:50;;;;;;;7.50;3.55;;;22.20;99.90;;;;;;4989546;28;20049;-89
2022/07/30 10:49:16;;;;;;;7.38;3.47;;;22.20;99.90;;;;;;4989929;28;20050;-89
2022/07/30 10:51:50;;;;;;;9.15;4.10;;;22.20;99.90;;;;;;4989517;28;20061;-90
2022/07/30 10:54:40;;;;;;;8.20;3.33;;;22.20;99.90;;;;;;4994467;28;20046;-90
2022/07/30 10:57:12;;;;;;;7.80;3.47;;;22.30;99.90;;;;;;5004958;28;20137;-88
2022/07/30 11:00:01;;;;;;;10.05;3.45;;;22.40;99.90;;;;;;4987140;28;20136;-90
2022/07/30 11:02:28;;;;;;;7.60;3.80;;;22.30;99.90;;;;;;4983393;28;20054;-89
2022/07/30 11:05:16;;;;;;;7.43;3.20;;;22.20;99.90;;;;;;4980645;28;20499;-90
2022/07/30 11:07:42;;;;;;;9.00;3.55;;;22.30;99.90;;;;;;4982275;28;20315;-90
2022/07/30 11:10:36;;;;;;;8.45;3.60;;;22.30;99.90;;;;;;4995642;28;20058;-90
2022/07/30 11:13:02;;;;;;;8.50;4.05;;;22.40;99.90;;;;;;5013094;28;20081;-89
2022/07/30 11:15:58;;;;;;;9.55;3.97;;;22.40;99.90;;;;;;4994732;28;20104;-89
2022/07/30 11:18:25;;;;;;;9.32;3.50;;;22.40;99.90;;;;;;4991922;28;20054;-88
2022/07/30 11:21:17;;;;;;;7.80;3.50;;;22.30;99.90;;;;;;5004517;28;20179;-90
2022/07/30 11:23:45;;;;;;;8.63;3.75;;;22.40;99.90;;;;;;5014699;28;20042;-91
2022/07/30 11:26:29;;;;;;;9.05;3.40;;;22.50;99.90;;;;;;4998820;28;20053;-89
2022/07/30 11:28:55;;;;;;;7.32;3.30;;;22.50;99.90;;;;;;5023547;28;20084;-89
2022/07/30 11:31:26;;;;;;;7.90;3.13;;;22.50;99.90;;;;;;4994162;28;20038;-90
2022/07/30 11:33:52;;;;;;;7.80;3.13;;;22.50;99.90;;;;;;5024169;28;20429;-90
2022/07/30 11:36:18;;;;;;;6.82;3.33;;;22.60;99.90;;;;;;5011438;28;20037;-90
2022/07/30 11:38:54;;;;;;;7.30;3.40;;;22.60;99.90;;;;;;4993917;28;20426;-89
2022/07/30 11:41:21;;;;;;;7.65;2.97;;;22.60;99.90;;;;;;5023609;28;20057;-88
2022/07/30 11:43:46;;;;;;;7.10;3.17;;;22.80;99.90;;;;;;5009727;28;20051;-90
2022/07/30 11:46:22;;;;;;;7.68;3.10;;;22.90;99.90;;;;;;5010244;28;20128;-89
2022/07/30 11:49:04;;;;;;;7.90;3.10;;;23.00;99.90;;;;;;4992177;28;20139;-89
2022/07/30 11:51:44;;;;;;;7.35;3.00;;;23.00;99.90;;;;;;4994464;28;20049;-89
2022/07/30 11:54:11;;;;;;;7.20;3.35;;;22.90;99.90;;;;;;5028985;28;20041;-90
2022/07/30 11:56:48;;;;;;;7.30;3.30;;;22.90;99.90;;;;;;5018454;28;20045;-88
2022/07/30 11:59:14;;;;;;;9.95;3.10;;;23.00;99.90;;;;;;5029089;28;20045;-88
2022/07/30 12:01:40;;;;;;;8.75;3.00;;;23.00;99.90;;;;;;5025820;28;20410;-89
2022/07/30 12:04:08;;;;;;;7.28;3.03;;;23.10;99.90;;;;;;5008797;28;20033;-91
2022/07/30 12:06:42;;;;;;;6.80;2.88;;;23.10;99.90;;;;;;5000911;28;20053;-89
2022/07/30 12:09:08;;;;;;;7.80;3.30;;;23.10;99.90;;;;;;5008110;28;20425;-89
2022/07/30 12:11:37;;;;;;;6.28;2.90;;;23.00;99.90;;;;;;5008695;28;20050;-91
2022/07/30 12:14:06;;;;;;;8.77;3.40;;;23.00;99.90;;;;;;5003010;28;20041;-88
2022/07/30 12:16:33;;;;;;;7.72;3.30;;;23.10;99.90;;;;;;5010740;28;20406;-89
2022/07/30 12:19:05;;;;;;;6.88;2.88;;;23.00;99.90;;;;;;5008977;28;20088;-90
2022/07/30 12:21:32;;;;;;;7.00;3.38;;;23.00;99.90;;;;;;5010424;28;20042;-88
2022/07/30 12:24:03;;;;;;;7.82;2.85;;;22.80;99.90;;;;;;5027500;28;20045;-87
2022/07/30 12:26:29;;;;;;;;;;;22.80;99.90;;;;;;4985110;28;20069;-89
2022/07/30 12:29:00;;;;;;;5.93;2.60;;;22.80;99.90;;;;;;5025459;28;20550;-91
2022/07/30 12:31:26;;;;;;;;;;;22.90;99.90;;;;;;5001352;28;20053;-88
2022/07/30 12:33:52;;;;;;;6.10;2.70;;;22.80;99.90;;;;;;4975172;28;20334;-89
2022/07/30 12:36:29;;;;;;;5.63;3.05;;;22.90;99.90;;;;;;4994140;28;20158;-89
2022/07/30 12:38:56;;;;;;;6.07;2.63;;;22.90;99.90;;;;;;4999326;28;20123;-91
2022/07/30 12:41:39;;;;;;;6.80;2.85;;;22.90;99.90;;;;;;5027489;28;20120;-89
2022/07/30 12:44:04;;;;;;;5.13;2.25;;;22.90;99.90;;;;;;5020679;28;20120;-90
2022/07/30 12:46:40;;;;;;;6.38;2.60;;;23.00;99.90;;;;;;5028086;28;20542;-90